Time;durP1;ratioP1;P1;durP2;ratioP2;P2;SDS_P1;SDS_P2;PMS_P1;PMS_P2;Temp;Humidity;BMP_temperature;BMP_pressure;BME280_temperature;BME280_humidity;BME280_pressure;Samples;Min_cycle;Max_cycle;Signal;HPM_P1;HPM_P2
2022/06/08 00:02:01;;;;;;;3.45;2.75;;;;;;;21.35;48.89;101074.38;4862561;29;20029;-91
2022/06/08 00:04:26;;;;;;;6.43;3.00;;;;;;;21.34;48.89;101062.19;4861918;29;20036;-88
2022/06/08 00:06:53;;;;;;;5.82;2.97;;;;;;;21.35;49.03;101061.28;4831395;29;20514;-91
2022/06/08 00:09:19;;;;;;;3.63;3.15;;;;;;;21.33;49.01;101058.69;4845667;29;20532;-90
2022/06/08 00:11:45;;;;;;;4.45;3.00;;;;;;;21.34;49.08;101060.44;4862145;29;20029;-90
2022/06/08 00:14:11;;;;;;;4.78;3.03;;;;;;;21.34;49.49;101054.34;4830795;29;20488;-90
2022/06/08 00:16:37;;;;;;;3.85;3.20;;;;;;;21.34;49.26;101051.72;4830002;29;20041;-90
2022/06/08 00:19:03;;;;;;;4.35;3.00;;;;;;;21.34;49.22;101054.34;4830461;29;20034;-90
2022/06/08 00:21:28;;;;;;;4.57;2.90;;;;;;;21.34;49.18;101046.50;4845365;29;20021;-90
2022/06/08 00:23:53;;;;;;;5.90;3.10;;;;;;;21.33;49.57;101040.38;4844846;29;20163;-90
2022/06/08 00:26:19;;;;;;;3.85;2.92;;;;;;;21.34;49.58;101049.97;4830433;29;20469;-91
2022/06/08 00:28:45;;;;;;;3.00;2.70;;;;;;;21.35;49.41;101048.19;4845324;29;20054;-90
2022/06/08 00:31:11;;;;;;;3.92;3.00;;;;;;;21.34;49.38;101036.88;4829513;29;20042;-79
2022/06/08 00:33:36;;;;;;;6.60;2.80;;;;;;;21.33;49.47;101037.75;4845515;29;20473;-81
2022/06/08 00:36:01;;;;;;;3.85;3.00;;;;;;;21.33;49.50;101029.91;4847782;29;20029;-79
2022/06/08 00:38:27;;;;;;;3.17;2.80;;;;;;;21.34;49.46;101023.78;4848913;29;20065;-80
2022/06/08 00:41:08;;;;;;;3.97;2.78;;;;;;;21.34;49.44;101021.19;4847903;29;20030;-81
2022/06/08 00:43:35;;;;;;;3.70;3.03;;;;;;;21.34;49.67;101018.56;4849012;29;20044;-91
2022/06/08 00:46:02;;;;;;;3.00;2.67;;;;;;;21.36;49.40;101018.50;4848738;29;20052;-90
2022/06/08 00:48:35;;;;;;;3.50;2.78;;;;;;;21.34;49.54;101015.94;4848745;29;20029;-91
2022/06/08 00:51:02;;;;;;;4.82;2.90;;;;;;;21.34;49.54;101010.69;4848252;29;20033;-90
2022/06/08 00:53:37;;;;;;;3.67;2.90;;;;;;;21.34;49.59;101000.22;4848867;29;20044;-91
2022/06/08 00:56:06;;;;;;;3.22;2.50;;;;;;;21.34;49.88;100996.75;4848106;29;20033;-90
2022/06/08 00:58:34;;;;;;;3.92;2.80;;;;;;;21.34;49.86;100995.00;4848150;29;20042;-91
2022/06/08 01:01:00;;;;;;;4.13;2.75;;;;;;;21.34;49.69;100997.63;4848791;29;20057;-91
2022/06/08 01:03:28;;;;;;;3.75;2.60;;;;;;;21.34;49.65;100995.00;4864935;29;20058;-89
2022/06/08 01:06:00;;;;;;;2.92;2.33;;;;;;;21.34;49.92;100994.16;4848041;29;20022;-91
2022/06/08 01:09:05;;;;;;;3.47;2.60;;;;;;;21.34;49.89;100988.91;4847886;29;20491;-91
2022/06/08 01:11:43;;;;;;;3.28;2.42;;;;;;;21.34;49.67;100987.16;4775189;30;20043;-91
2022/06/08 01:14:12;;;;;;;3.15;2.33;;;;;;;21.34;49.71;100989.75;4841172;29;20106;-91
2022/06/08 01:16:45;;;;;;;3.00;2.40;;;;;;;21.33;50.06;100980.16;4833294;29;20097;-91
2022/06/08 01:19:12;;;;;;;2.80;2.50;;;;;;;21.34;50.04;100975.81;4862945;29;20017;-89
2022/06/08 01:21:37;;;;;;;3.47;2.55;;;;;;;21.34;50.00;100973.19;4849503;29;20033;-91
2022/06/08 01:24:10;;;;;;;3.67;2.20;;;;;;;21.34;49.94;100965.34;4848010;29;20121;-90
2022/06/08 01:26:50;;;;;;;2.83;2.37;;;;;;;21.33;50.16;100967.09;4848082;29;20033;-91
2022/06/08 01:29:20;;;;;;;2.85;2.53;;;;;;;21.33;50.02;100958.38;4864510;29;20266;-91
2022/06/08 01:32:03;;;;;;;3.13;2.00;;;;;;;21.32;49.92;100957.53;4847778;29;20058;-91
2022/06/08 01:35:06;;;;;;;3.25;2.30;;;;;;;21.33;50.19;100958.38;4864126;29;20038;-90
2022/06/08 01:37:46;;;;;;;5.03;2.20;;;;;;;21.34;50.17;100965.34;4848053;29;20392;-91
2022/06/08 01:40:50;;;;;;;3.97;2.38;;;;;;;21.33;50.23;100947.91;4847168;29;20057;-91
2022/06/08 01:43:30;;;;;;;3.35;2.33;;;;;;;21.31;50.21;100944.47;4847277;29;20109;-91
2022/06/08 01:46:01;;;;;;;2.55;2.25;;;;;;;21.33;49.95;100940.06;4846964;29;20493;-91
2022/06/08 01:48:45;;;;;;;2.83;2.15;;;;;;;21.33;50.27;100940.06;4847129;29;20033;-90
2022/06/08 01:51:19;;;;;;;;;;;;;;;21.33;50.08;100935.66;4847860;29;20434;-91
2022/06/08 01:53:51;;;;;;;3.80;2.30;;;;;;;21.33;50.32;100933.06;4847804;29;19951;-91
2022/06/08 01:56:25;;;;;;;3.45;2.20;;;;;;;21.33;50.22;100929.59;4847890;29;20441;-91
2022/06/08 01:59:21;;;;;;;2.72;2.20;;;;;;;21.32;50.27;100922.63;4848129;29;20029;-90
2022/06/08 02:01:46;;;;;;;3.72;2.50;;;;;;;21.32;49.80;100914.78;4862323;29;20061;-90
2022/06/08 02:04:29;;;;;;;2.97;2.22;;;;;;;21.32;50.49;100909.56;4847353;29;20152;-91
2022/06/08 02:06:54;;;;;;;3.75;2.45;;;;;;;21.31;49.95;100908.66;4847012;29;20036;-91
2022/06/08 02:09:36;;;;;;;3.28;2.50;;;;;;;21.29;50.09;100896.53;4846988;29;20035;-91
2022/06/08 02:12:08;;;;;;;3.45;2.30;;;;;;;21.30;50.10;100893.03;4846755;29;20029;-91
2022/06/08 02:14:44;;;;;;;2.80;2.03;;;;;;;21.32;50.15;100901.69;4863846;29;20017;-91
2022/06/08 02:17:26;;;;;;;2.55;2.20;;;;;;;21.31;50.23;100898.19;4846928;29;20061;-90
2022/06/08 02:20:05;;;;;;;4.18;2.72;;;;;;;21.31;50.11;100886.88;4846712;29;20065;-92
2022/06/08 02:22:45;;;;;;;2.72;2.20;;;;;;;21.30;50.23;100882.56;4846482;29;20029;-91
2022/06/08 02:25:20;;;;;;;3.63;2.53;;;;;;;21.30;50.01;100882.56;4846789;29;20385;-90
2022/06/08 02:28:01;;;;;;;3.38;2.53;;;;;;;21.30;50.36;100874.69;4846415;29;20033;-92
2022/06/08 02:30:30;;;;;;;4.35;2.38;;;;;;;21.30;50.13;100874.69;4846833;29;20026;-92
2022/06/08 02:36:18;;;;;;;3.08;2.17;;;;;;;21.27;50.22;100865.13;4863380;29;20053;-91
2022/06/08 02:38:52;;;;;;;3.55;2.58;;;;;;;21.29;50.07;100859.88;4846268;29;20032;-92
2022/06/08 02:41:21;;;;;;;3.30;2.50;;;;;;;21.27;50.14;100859.91;4847100;29;20029;-91
2022/06/08 02:43:52;;;;;;;3.30;2.40;;;;;;;21.27;50.19;100853.81;4861348;29;20442;-91
2022/06/08 02:46:36;;;;;;;4.82;2.13;;;;;;;21.28;50.06;100851.19;4846924;29;20033;-91
2022/06/08 02:49:07;;;;;;;3.42;2.63;;;;;;;21.27;50.00;100853.81;4846739;29;20056;-91
2022/06/08 02:51:33;;;;;;;2.65;2.25;;;;;;;21.28;50.10;100851.19;4846326;29;20034;-90
2022/06/08 02:54:01;;;;;;;4.05;2.20;;;;;;;21.27;49.98;100852.06;4845684;29;20045;-90
2022/06/08 02:56:35;;;;;;;3.10;2.40;;;;;;;21.29;50.09;100855.50;4861884;29;20469;-91
2022/06/08 02:59:22;;;;;;;3.88;2.20;;;;;;;21.29;50.10;100852.03;4846049;29;20057;-89
2022/06/08 03:02:02;;;;;;;3.38;2.42;;;;;;;21.28;50.13;100845.09;4845757;29;20029;-90
2022/06/08 03:05:01;;;;;;;4.30;2.40;;;;;;;21.28;50.04;100843.31;4845532;29;20061;-91
2022/06/08 03:07:37;;;;;;;2.47;2.25;;;;;;;21.27;50.00;100844.19;4845809;29;20041;-90
2022/06/08 03:10:07;;;;;;;3.03;2.22;;;;;;;21.27;50.23;100840.72;4845910;29;20037;-91
2022/06/08 03:12:39;;;;;;;5.28;2.72;;;;;;;21.27;49.81;100838.13;4845957;29;20040;-91
2022/06/08 03:15:09;;;;;;;2.58;2.17;;;;;;;21.26;50.11;100834.66;4845842;29;20032;-90
2022/06/08 03:17:37;;;;;;;2.95;2.20;;;;;;;21.28;49.89;100845.09;4831796;29;20392;-92
2022/06/08 03:20:05;;;;;;;4.10;2.30;;;;;;;21.27;50.08;100838.13;4845530;29;20033;-90
2022/06/08 03:22:31;;;;;;;3.65;2.55;;;;;;;21.27;50.06;100830.25;4862258;29;20066;-91
2022/06/08 03:24:59;;;;;;;3.35;2.50;;;;;;;21.26;49.87;100833.78;4878208;29;20025;-88
2022/06/08 03:27:25;;;;;;;3.38;2.45;;;;;;;21.27;50.00;100836.34;4831933;29;20490;-91
2022/06/08 03:29:51;;;;;;;2.50;2.30;;;;;;;21.27;49.97;100835.50;4845787;29;20104;-90
2022/06/08 03:32:16;;;;;;;3.35;2.25;;;;;;;21.27;49.96;100832.88;4862374;29;20034;-91
2022/06/08 03:34:42;;;;;;;2.53;2.25;;;;;;;21.26;49.87;100832.03;4845870;29;20021;-90
2022/06/08 03:37:08;;;;;;;3.63;2.15;;;;;;;21.26;49.86;100828.56;4845519;29;20037;-91
2022/06/08 03:39:33;;;;;;;3.15;2.40;;;;;;;21.27;50.11;100827.66;4830672;29;20136;-90
2022/06/08 03:42:01;;;;;;;3.30;2.20;;;;;;;21.27;50.21;100827.66;4830692;29;20140;-90
2022/06/08 03:44:28;;;;;;;3.45;2.92;;;;;;;21.27;50.03;100823.25;4845170;29;20061;-91
2022/06/08 03:47:02;;;;;;;3.15;2.28;;;;;;;21.27;49.91;100822.41;4815901;29;20508;-90
2022/06/08 03:49:28;;;;;;;3.45;2.20;;;;;;;21.27;49.90;100817.19;4846805;29;20426;-91
2022/06/08 03:51:58;;;;;;;2.80;2.03;;;;;;;21.27;49.91;100818.03;4815331;29;20033;-90
2022/06/08 03:54:31;;;;;;;2.70;2.30;;;;;;;21.28;49.82;100813.69;4845657;29;20034;-90
2022/06/08 03:57:03;;;;;;;3.85;2.17;;;;;;;21.27;49.89;100819.78;4845515;29;20108;-90
2022/06/08 03:59:29;;;;;;;3.92;2.08;;;;;;;21.28;49.93;100822.38;4845417;29;20058;-90
2022/06/08 04:01:55;;;;;;;2.88;2.05;;;;;;;21.28;50.18;100808.44;4845679;29;20038;-91
2022/06/08 04:04:20;;;;;;;3.95;2.50;;;;;;;21.29;49.83;100820.63;4846065;29;20425;-90
2022/06/08 04:06:45;;;;;;;2.63;2.03;;;;;;;21.28;50.14;100819.75;4863245;29;20021;-89
2022/06/08 04:09:11;;;;;;;2.67;2.20;;;;;;;21.28;50.02;100814.53;4833821;29;20393;-90
2022/06/08 04:11:36;;;;;;;2.83;2.20;;;;;;;21.29;50.03;100826.69;4850415;29;20040;-90
2022/06/08 04:14:02;;;;;;;2.67;2.22;;;;;;;21.29;50.04;100823.22;4834611;29;20564;-90
2022/06/08 04:16:28;;;;;;;4.88;1.80;;;;;;;21.28;50.00;100827.63;4837966;29;20033;-89
2022/06/08 04:18:54;;;;;;;2.85;2.30;;;;;;;21.29;49.98;100821.47;4856296;29;20021;-89
2022/06/08 04:21:20;;;;;;;3.58;2.00;;;;;;;21.28;50.05;100814.53;4857132;29;20034;-89
2022/06/08 04:23:47;;;;;;;3.35;2.15;;;;;;;21.28;50.20;100814.53;4859047;29;20086;-90
2022/06/08 04:26:14;;;;;;;3.45;2.00;;;;;;;21.28;50.35;100818.91;4839489;29;20038;-90
2022/06/08 04:28:40;;;;;;;3.58;2.20;;;;;;;21.29;50.12;100810.16;4853466;29;20045;-89
2022/06/08 04:31:08;;;;;;;4.20;1.98;;;;;;;21.31;50.15;100816.19;4835926;29;20116;-86
2022/06/08 04:33:34;;;;;;;3.08;2.00;;;;;;;21.29;50.04;100811.00;4849579;29;20033;-84
2022/06/08 04:36:00;;;;;;;2.33;1.90;;;;;;;21.30;50.03;100811.88;4833245;29;20038;-85
2022/06/08 04:38:25;;;;;;;2.78;2.35;;;;;;;21.30;50.18;100807.50;4848676;29;20033;-85
2022/06/08 04:40:50;;;;;;;4.13;1.75;;;;;;;21.30;50.18;100811.88;4833162;29;20136;-86
2022/06/08 04:43:17;;;;;;;3.03;2.03;;;;;;;21.30;49.91;100809.25;4832518;29;20037;-83
2022/06/08 04:45:43;;;;;;;2.63;2.10;;;;;;;21.31;49.88;100814.44;4864782;29;20108;-82
2022/06/08 04:48:09;;;;;;;2.17;1.60;;;;;;;21.31;49.88;100810.97;4849268;29;20032;-80
2022/06/08 04:50:35;;;;;;;4.30;1.98;;;;;;;21.31;49.90;100795.25;4864974;29;20036;-84
2022/06/08 04:53:01;;;;;;;2.33;1.90;;;;;;;21.32;49.75;100805.72;4864822;29;20029;-84
2022/06/08 04:55:27;;;;;;;2.10;1.90;;;;;;;21.32;49.73;100804.84;4832644;29;20128;-85
2022/06/08 04:57:53;;;;;;;2.17;1.90;;;;;;;21.32;49.75;100803.09;4847627;29;20029;-86
2022/06/08 05:00:23;;;;;;;2.05;1.85;;;;;;;21.31;49.89;100801.34;4864522;29;20087;-85
2022/06/08 05:02:52;;;;;;;2.65;1.60;;;;;;;21.31;49.88;100797.88;4864055;29;20109;-85
2022/06/08 05:05:23;;;;;;;2.75;1.90;;;;;;;21.28;50.05;100797.97;4847596;29;20036;-85
2022/06/08 05:07:49;;;;;;;7.75;3.35;;;;;;;21.30;49.88;100807.50;4864317;29;20081;-86
2022/06/08 05:10:16;;;;;;;8.57;3.45;;;;;;;21.31;49.88;100800.50;4847373;29;20037;-84
2022/06/08 05:12:42;;;;;;;10.57;3.70;;;;;;;21.32;49.83;100797.00;4847735;29;20032;-86
2022/06/08 05:15:30;;;;;;;28.95;8.32;;;;;;;21.32;50.00;100792.63;4863795;29;20418;-84
2022/06/08 05:17:56;;;;;;;17.42;7.80;;;;;;;21.16;50.20;100793.88;4847432;29;20101;-88
2022/06/08 05:20:23;;;;;;;15.05;6.68;;;;;;;21.00;50.47;100789.97;4846961;29;20044;-88
2022/06/08 05:22:49;;;;;;;17.75;5.97;;;;;;;20.94;50.52;100788.34;4865016;29;20030;-89
2022/06/08 05:25:19;;;;;;;11.25;4.70;;;;;;;20.86;50.63;100782.41;4831851;29;20026;-89
2022/06/08 05:27:44;;;;;;;11.38;4.20;;;;;;;20.80;50.76;100783.44;4847788;29;20053;-88
2022/06/08 05:30:10;;;;;;;6.60;3.75;;;;;;;20.79;50.72;100784.31;4842125;29;20037;-88
2022/06/08 05:32:37;;;;;;;8.30;3.38;;;;;;;20.83;50.35;100783.34;4852987;29;20065;-89
2022/06/08 05:35:03;;;;;;;6.47;2.78;;;;;;;20.82;50.60;100779.03;4847709;29;20044;-90
2022/06/08 05:37:29;;;;;;;5.63;2.95;;;;;;;20.78;50.54;100776.53;4832677;29;20076;-89
2022/06/08 05:39:54;;;;;;;7.90;3.25;;;;;;;20.71;50.28;100775.81;4847402;29;20026;-89
2022/06/08 05:42:20;;;;;;;7.75;2.75;;;;;;;20.68;50.83;100778.50;4847225;29;20041;-90
2022/06/08 05:44:45;;;;;;;7.43;2.53;;;;;;;20.64;50.87;100772.47;4831908;29;20033;-91
2022/06/08 05:47:12;;;;;;;5.10;2.90;;;;;;;20.65;50.67;100778.56;4847518;29;20034;-89
2022/06/08 05:49:37;;;;;;;6.20;2.60;;;;;;;20.71;50.53;100781.06;4847297;29;20392;-90
2022/06/08 05:52:04;;;;;;;6.55;2.60;;;;;;;20.75;50.73;100765.25;4816769;29;20041;-89
2022/06/08 05:54:29;;;;;;;4.72;2.60;;;;;;;20.73;50.58;100771.38;4832371;29;20037;-90
2022/06/08 05:56:55;;;;;;;4.53;2.40;;;;;;;20.66;50.66;100770.69;4847178;29;20037;-89
2022/06/08 05:59:21;;;;;;;5.40;2.47;;;;;;;20.62;50.89;100762.94;4846821;29;20114;-90
2022/06/08 06:01:46;;;;;;;5.15;2.42;;;;;;;20.60;51.04;100763.00;4817298;29;20416;-89
2022/06/08 06:04:12;;;;;;;6.13;2.13;;;;;;;20.60;51.17;100757.78;4831504;29;20029;-90
2022/06/08 06:06:38;;;;;;;5.20;2.25;;;;;;;20.61;51.20;100751.63;4847602;29;20113;-88
2022/06/08 06:09:04;;;;;;;4.00;2.33;;;;;;;20.63;50.98;100749.00;4831981;29;20039;-89
2022/06/08 06:11:30;;;;;;;4.22;2.33;;;;;;;20.64;50.91;100741.09;4851794;29;20032;-89
2022/06/08 06:13:57;;;;;;;4.80;2.33;;;;;;;20.65;50.60;100734.97;4856649;29;20033;-88
2022/06/08 06:16:24;;;;;;;4.75;2.10;;;;;;;20.68;50.80;100741.88;4832070;29;20040;-90
2022/06/08 06:18:50;;;;;;;4.15;2.30;;;;;;;20.66;50.80;100736.69;4863653;29;20065;-89
2022/06/08 06:21:20;;;;;;;7.10;2.50;;;;;;;20.61;50.90;100738.56;4846794;29;20413;-89
2022/06/08 06:23:46;;;;;;;6.47;2.40;;;;;;;20.64;50.99;100742.84;4831958;29;20037;-89
2022/06/08 06:26:11;;;;;;;7.28;2.30;;;;;;;20.66;50.68;100734.06;4863645;29;20112;-88
2022/06/08 06:28:36;;;;;;;5.60;2.28;;;;;;;20.67;50.70;100734.94;4831449;29;20481;-90
2022/06/08 06:31:02;;;;;;;5.10;2.40;;;;;;;20.70;50.55;100732.25;4848014;29;20034;-89
2022/06/08 06:33:28;;;;;;;4.28;2.00;;;;;;;20.71;50.77;100729.63;4847330;29;20033;-90
2022/06/08 06:35:53;;;;;;;3.08;1.92;;;;;;;20.75;50.45;100731.25;4831198;29;20037;-89
2022/06/08 06:38:18;;;;;;;4.82;2.17;;;;;;;20.79;50.37;100724.19;4831501;29;20069;-89
2022/06/08 06:40:44;;;;;;;4.60;2.10;;;;;;;20.80;50.54;100723.28;4831587;29;20123;-91
2022/06/08 06:43:11;;;;;;;5.57;2.17;;;;;;;20.80;50.26;100720.69;4846441;29;20388;-93
2022/06/08 06:45:36;;;;;;;6.97;2.15;;;;;;;20.81;50.29;100726.75;4846112;29;20062;-89
2022/06/08 06:48:02;;;;;;;5.90;2.63;;;;;;;20.79;50.40;100725.94;4830701;29;20037;-89
2022/06/08 06:50:27;;;;;;;6.57;2.70;;;;;;;20.78;50.46;100719.00;4846264;29;20032;-89
2022/06/08 06:52:53;;;;;;;5.10;2.50;;;;;;;20.80;50.39;100725.06;4834644;29;20045;-86
2022/06/08 06:55:28;;;;;;;5.18;2.47;;;;;;;20.79;50.32;100715.47;4838808;29;20040;-79
2022/06/08 06:58:00;;;;;;;7.35;2.78;;;;;;;20.80;50.49;100715.44;4845183;29;20120;-79
2022/06/08 07:00:26;;;;;;;4.30;2.67;;;;;;;20.82;50.39;100711.03;4830723;29;20052;-79
2022/06/08 07:02:52;;;;;;;4.72;2.80;;;;;;;20.83;50.34;100717.13;4845305;29;20029;-79
2022/06/08 07:05:21;;;;;;;8.52;3.15;;;;;;;20.84;50.38;100714.47;4845299;29;20089;-80
2022/06/08 07:07:48;;;;;;;5.15;3.00;;;;;;;20.88;50.46;100715.25;4845487;29;20027;-79
2022/06/08 07:10:14;;;;;;;3.30;2.58;;;;;;;20.87;50.37;100714.38;4844958;29;20030;-79
2022/06/08 07:12:40;;;;;;;5.60;3.10;;;;;;;20.86;50.45;100711.81;4862009;29;20044;-80
2022/06/08 07:15:06;;;;;;;5.68;3.20;;;;;;;20.83;50.55;100709.28;4845297;29;20033;-79
2022/06/08 07:17:31;;;;;;;6.60;3.10;;;;;;;20.82;50.69;100699.69;4845288;29;20037;-79
2022/06/08 07:19:56;;;;;;;5.45;3.22;;;;;;;20.82;50.74;100702.31;4861792;29;20473;-80
2022/06/08 07:22:22;;;;;;;5.18;3.20;;;;;;;20.81;50.90;100698.84;4861657;29;20040;-80
2022/06/08 07:24:47;;;;;;;6.63;3.20;;;;;;;20.84;50.89;100703.13;4829777;29;20026;-80
2022/06/08 07:27:13;;;;;;;8.50;3.47;;;;;;;20.82;51.18;100692.72;4845186;29;20036;-78
2022/06/08 07:29:38;;;;;;;6.22;3.10;;;;;;;20.83;50.77;100694.44;4844741;29;20057;-78
2022/06/08 07:32:04;;;;;;;8.70;3.17;;;;;;;20.84;50.89;100693.56;4844888;29;20062;-77
2022/06/08 07:34:30;;;;;;;5.32;3.00;;;;;;;20.86;50.65;100689.16;4861605;29;20037;-80
2022/06/08 07:36:57;;;;;;;4.70;3.00;;;;;;;20.88;50.81;100689.97;4844936;29;20128;-80
2022/06/08 07:39:23;;;;;;;5.57;3.03;;;;;;;20.90;50.80;100689.91;4845159;29;20532;-80
2022/06/08 07:41:49;;;;;;;6.95;3.08;;;;;;;20.94;50.66;100686.31;4845375;29;20025;-79
2022/06/08 07:44:16;;;;;;;4.47;2.80;;;;;;;20.93;50.59;100685.47;4847421;29;20038;-80
2022/06/08 07:46:42;;;;;;;9.05;2.78;;;;;;;20.92;50.99;100685.50;4833702;29;20033;-79
2022/06/08 07:51:56;;;;;;;7.18;3.75;;;;;;;20.95;50.71;100680.19;4865518;29;20113;-80
2022/06/08 07:54:24;;;;;;;5.68;3.35;;;;;;;20.95;50.52;100678.44;4848881;29;20433;-80
2022/06/08 07:56:51;;;;;;;6.13;3.50;;;;;;;20.92;50.54;100678.50;4865267;29;20026;-79
2022/06/08 07:59:18;;;;;;;5.93;2.90;;;;;;;20.93;50.69;100674.16;4848773;29;20061;-79
2022/06/08 08:01:43;;;;;;;5.22;2.55;;;;;;;20.94;50.49;100674.09;4865294;29;20034;-79
2022/06/08 08:04:09;;;;;;;6.18;2.83;;;;;;;20.94;50.61;100670.63;4832966;29;20485;-80
2022/06/08 08:06:34;;;;;;;5.40;2.72;;;;;;;20.98;50.71;100676.63;4848752;29;20037;-79
2022/06/08 08:09:00;;;;;;;4.53;2.35;;;;;;;20.96;50.72;100671.44;4848439;29;20131;-80
2022/06/08 08:11:26;;;;;;;6.43;2.83;;;;;;;20.98;50.59;100674.03;4863912;29;20045;-79
2022/06/08 08:13:52;;;;;;;5.47;2.80;;;;;;;20.95;50.71;100664.50;4848018;29;20018;-80
2022/06/08 08:16:18;;;;;;;4.45;2.55;;;;;;;20.93;51.05;100661.91;4864788;29;20040;-80
2022/06/08 08:18:43;;;;;;;6.07;2.90;;;;;;;20.96;50.77;100667.06;4849162;29;20037;-80
2022/06/08 08:21:08;;;;;;;4.22;2.58;;;;;;;20.96;51.10;100669.69;4832714;29;20045;-79
2022/06/08 08:23:34;;;;;;;7.30;2.97;;;;;;;20.96;50.95;100669.69;4832833;29;20132;-79
2022/06/08 08:25:59;;;;;;;7.22;3.17;;;;;;;20.99;51.06;100662.66;4832530;29;20048;-79
2022/06/08 08:28:25;;;;;;;5.65;2.67;;;;;;;20.98;50.77;100655.72;4864266;29;20021;-79
2022/06/08 08:30:50;;;;;;;5.38;2.70;;;;;;;20.98;51.03;100659.19;4848112;29;20500;-81
2022/06/08 08:33:15;;;;;;;6.30;2.78;;;;;;;20.99;50.92;100663.53;4847808;29;20033;-79
2022/06/08 08:35:41;;;;;;;5.30;3.35;;;;;;;21.00;50.99;100660.00;4832333;29;20128;-79
2022/06/08 08:38:06;;;;;;;6.95;2.40;;;;;;;21.05;50.96;100659.88;4832455;29;20041;-80
2022/06/08 08:40:48;;;;;;;6.13;2.95;;;;;;;21.04;50.80;100650.31;4864485;29;20034;-79
2022/06/08 08:43:25;;;;;;;5.45;3.42;;;;;;;21.02;50.97;100649.50;4847845;29;20065;-78
2022/06/08 08:46:27;;;;;;;6.45;3.03;;;;;;;21.01;51.08;100653.00;4847311;29;20030;-80
2022/06/08 08:49:23;;;;;;;4.85;2.67;;;;;;;21.05;50.94;100650.25;4820008;29;20033;-77
2022/06/08 08:52:01;;;;;;;5.13;2.80;;;;;;;21.04;51.01;100651.19;4864163;29;20036;-78
2022/06/08 08:54:34;;;;;;;5.35;2.47;;;;;;;21.06;50.79;100649.38;4863837;29;20032;-78
2022/06/08 08:57:25;;;;;;;9.95;3.38;;;;;;;21.04;51.11;100645.94;4864049;29;20029;-78
2022/06/08 08:59:51;;;;;;;8.23;3.50;;;;;;;21.03;51.33;100652.06;4847412;29;20053;-76
2022/06/08 09:03:14;;;;;;;9.50;3.65;;;;;;;21.06;51.19;100649.38;4864184;29;20029;-78
2022/06/08 09:05:27;;;;;;;6.88;3.60;;;;;;;21.04;51.25;100661.63;4863722;29;20131;-78
2022/06/08 09:07:52;;;;;;;5.90;2.90;;;;;;;21.08;51.20;100660.66;4832544;29;20029;-78
2022/06/08 13:40:45;;;;;;;5.00;2.20;;;;;;;21.48;50.88;100573.19;4285625;23;20076;-81
2022/06/08 13:43:10;;;;;;;5.00;2.40;;;;;;;;;;4882932;29;20041;-82
2022/06/08 13:45:44;;;;;;;4.05;2.15;;;;;;;21.50;51.12;100573.16;4887011;29;20044;-81
2022/06/08 13:51:32;;;;;;;4.55;2.20;;;;;;;21.47;51.16;100579.34;4902224;29;20047;-80
2022/06/08 13:53:58;;;;;;;4.38;1.88;;;;;;;21.47;51.30;100575.84;4864445;29;20473;-83
2022/06/08 14:14:16;;;;;;;2.95;1.45;;;;;;;21.42;51.37;100573.34;4903539;29;20070;-83
2022/06/08 14:20:59;;;;;;;3.67;1.73;;;;;;;21.43;51.21;100569.84;4848113;29;20067;-82
2022/06/08 14:29:47;;;;;;;2.60;1.40;;;;;;;21.41;51.28;100570.78;5185048;23;20057;-81
2022/06/08 14:32:35;;;;;;;3.47;1.70;;;;;;;21.42;51.31;100569.88;4887412;29;20032;-81
2022/06/08 14:38:35;;;;;;;3.40;1.48;;;;;;;21.46;51.28;100569.75;4902736;29;20048;-83
2022/06/08 14:41:37;;;;;;;3.72;1.30;;;;;;;21.47;51.45;100568.88;4873091;29;20035;-83
2022/06/08 14:44:20;;;;;;;2.80;1.33;;;;;;;21.48;51.36;100556.63;4889278;29;20049;-84
2022/06/08 17:23:56;;;;;;;8.32;2.97;;;;;;;21.60;51.57;100613.88;4786069;23;20299;-85
2022/06/08 17:29:28;;;;;;;6.50;2.75;;;;;;;21.61;51.54;100625.19;4953366;23;20045;-86
2022/06/08 17:52:20;;;;;;;10.77;3.33;;;;;;;21.58;51.89;100636.63;4904963;29;20104;-85
2022/06/08 18:45:54;;;;;;;7.50;3.15;;;;;;;21.51;51.60;100654.28;4376108;23;20061;-82
2022/06/08 18:52:08;;;;;;;6.47;2.50;;;;;;;21.52;51.70;100668.22;4882359;29;20037;-83
2022/06/08 18:54:36;;;;;;;6.95;3.05;;;;;;;21.53;51.82;100662.06;4836745;29;20043;-83
2022/06/08 18:57:13;;;;;;;7.18;2.72;;;;;;;21.52;51.75;100666.44;4796940;29;20047;-82
2022/06/08 18:59:39;;;;;;;5.68;2.80;;;;;;;21.53;51.94;100669.91;4827423;29;20055;-81
2022/06/08 19:02:10;;;;;;;8.48;3.05;;;;;;;21.53;51.78;100668.16;4823652;29;20035;-82
2022/06/08 19:04:36;;;;;;;5.75;3.00;;;;;;;21.52;51.87;100666.44;4816622;29;20043;-81
2022/06/08 19:07:01;;;;;;;8.32;3.28;;;;;;;21.54;51.79;100669.03;4804865;29;20031;-82
2022/06/08 19:09:48;;;;;;;8.13;3.17;;;;;;;21.55;51.78;100673.34;4822807;29;20038;-82
2022/06/08 19:12:26;;;;;;;8.75;3.10;;;;;;;21.56;51.90;100672.47;4826851;29;20038;-83
2022/06/08 19:21:08;;;;;;;10.15;3.90;;;;;;;21.55;53.72;100671.56;4832102;29;20057;-82
2022/06/08 19:23:42;;;;;;;11.00;3.80;;;;;;;21.55;53.71;100673.34;4828779;29;20037;-82
2022/06/08 19:26:35;;;;;;;12.65;4.05;;;;;;;21.54;53.63;100671.66;4861118;29;20052;-82
2022/06/08 19:32:09;;;;;;;8.13;3.40;;;;;;;;;;5139266;23;20061;-81
2022/06/08 19:34:38;;;;;;;8.80;3.58;;;;;;;21.48;53.25;100680.53;4885304;29;20559;-81
2022/06/08 19:37:04;;;;;;;11.85;3.30;;;;;;;21.46;53.12;100690.19;4880734;29;20033;-81
2022/06/08 19:39:30;;;;;;;9.63;3.15;;;;;;;21.45;52.94;100688.47;4881562;29;20053;-81
2022/06/08 19:41:56;;;;;;;7.85;3.33;;;;;;;21.46;53.01;100687.56;4879002;29;20036;-81
2022/06/08 19:44:52;;;;;;;7.65;3.40;;;;;;;21.46;53.02;100694.56;4882954;29;20036;-81
2022/06/08 19:47:28;;;;;;;9.13;3.15;;;;;;;21.44;53.00;100699.84;4901513;29;20032;-81
2022/06/08 19:49:54;;;;;;;6.93;3.28;;;;;;;21.44;52.92;100704.22;4882110;29;20063;-81
2022/06/08 19:52:21;;;;;;;12.15;3.45;;;;;;;21.43;52.92;100703.38;4867428;29;20029;-81
2022/06/08 19:54:49;;;;;;;12.10;3.10;;;;;;;21.44;52.98;100720.78;4864475;29;20029;-80
2022/06/08 19:57:20;;;;;;;7.78;3.05;;;;;;;21.42;52.91;100714.72;4896047;29;20025;-81
2022/06/08 19:59:46;;;;;;;9.00;2.88;;;;;;;21.42;53.00;100709.47;4879522;29;20029;-80
2022/06/08 20:02:11;;;;;;;6.93;3.17;;;;;;;21.43;52.96;100718.22;4869507;29;20021;-81
2022/06/08 20:04:53;;;;;;;7.28;3.20;;;;;;;21.42;53.03;100725.19;4901652;29;20024;-81
2022/06/08 20:07:20;;;;;;;9.27;3.15;;;;;;;21.42;53.05;100724.34;4902452;29;20029;-81
2022/06/08 20:10:05;;;;;;;6.95;3.30;;;;;;;21.43;52.95;100726.06;4866225;29;20066;-82
2022/06/08 20:12:33;;;;;;;9.25;3.38;;;;;;;21.42;52.92;100734.81;4882291;29;20097;-80
2022/06/08 20:14:58;;;;;;;8.65;3.53;;;;;;;21.39;53.00;100738.34;4881175;29;20033;-81
2022/06/08 20:17:26;;;;;;;7.45;3.05;;;;;;;21.40;52.96;100728.72;4880815;29;20072;-81
2022/06/08 20:23:36;;;;;;;7.80;3.00;;;;;;;21.41;52.88;100740.94;4902583;29;20029;-83
2022/06/08 20:32:57;;;;;;;6.47;2.85;;;;;;;21.39;53.16;100738.34;5024139;24;20057;-82
2022/06/08 20:35:23;;;;;;;7.20;3.10;;;;;;;21.38;52.92;100741.84;4882805;29;20045;-82
2022/06/08 20:37:57;;;;;;;6.45;3.00;;;;;;;21.37;53.03;100746.22;4882829;29;20036;-81
2022/06/08 20:40:27;;;;;;;7.60;2.72;;;;;;;21.40;53.20;100749.66;4895185;29;20137;-82
2022/06/08 20:42:53;;;;;;;8.10;3.45;;;;;;;21.39;53.07;100748.81;4876596;29;20096;-81
2022/06/08 20:45:19;;;;;;;7.03;3.03;;;;;;;21.39;52.86;100750.56;4877113;29;20025;-80
2022/06/08 20:48:14;;;;;;;5.43;2.80;;;;;;;21.38;53.18;100747.09;4865801;29;20047;-84
2022/06/08 20:51:05;;;;;;;7.20;3.00;;;;;;;21.34;53.21;100750.72;4807976;29;20042;-82
2022/06/08 20:54:02;;;;;;;7.93;2.88;;;;;;;21.33;53.03;100756.81;4824986;29;20063;-80
2022/06/08 20:56:29;;;;;;;8.20;2.80;;;;;;;21.31;53.09;100756.00;4810565;29;20125;-80
2022/06/08 20:59:06;;;;;;;7.70;3.08;;;;;;;21.30;53.01;100759.53;4836529;29;20110;-82
2022/06/08 21:02:14;;;;;;;6.40;2.83;;;;;;;21.30;52.94;100756.91;4836220;29;20034;-81
2022/06/08 21:04:39;;;;;;;6.55;2.78;;;;;;;21.29;52.96;100763.88;4824735;29;20094;-80
2022/06/08 21:07:05;;;;;;;7.20;3.00;;;;;;;21.28;53.16;100756.94;4817670;29;20038;-80
2022/06/08 21:09:31;;;;;;;7.18;3.40;;;;;;;21.28;53.07;100758.72;4800518;29;20090;-80